Terminal Aerodrome Forecast
Issued by NWS Jackson, KY

Home | Current Version | Previous Version | Text Only | Print | Product List | Glossary On
Versions: 1 2 3 4 5 6 7 8 9 10 11 12 13 14 15 16 17 18 19 20 21 22 23 24 25 26 27 28
537
FTUS43 KJKL 272253 AAA
TAFJKL
TAF AMD
KJKL 272253Z 2723/2818 VRB03KT P6SM VCTS SCT045CB BKN200
      TEMPO 2723/2724 VRB12G22KT 1SM +TSRA BR OVC035CB
     FM280200 VRB03KT 6SM BR VCSH BKN150
     FM281200 VRB03KT 3SM SHRA BR VCTS BKN040CB
     FM281600 VRB03KT 3SM SHRA BR VCTS BKN020CB=

USA.gov is the U.S. government's official web portal to all federal, state and local government web resources and services.